sensor_id;sensor_type;location;lat;lon;timestamp;pressure;altitude;pressure_sealevel;temperature;humidity
34124;BME280;13153;52.316;21.166;2023-05-24T00:02:06;100010.88;;;22.12;42.30
34124;BME280;13153;52.316;21.166;2023-05-24T00:04:33;100012.59;;;22.14;42.36
34124;BME280;13153;52.316;21.166;2023-05-24T00:06:58;100006.25;;;22.17;42.62
34124;BME280;13153;52.316;21.166;2023-05-24T00:09:29;100005.38;;;22.16;42.13
34124;BME280;13153;52.316;21.166;2023-05-24T00:11:55;100002.81;;;22.12;41.51
34124;BME280;13153;52.316;21.166;2023-05-24T00:14:21;100002.94;;;22.07;42.08
34124;BME280;13153;52.316;21.166;2023-05-24T00:16:47;99999.47;;;22.03;41.28
34124;BME280;13153;52.316;21.166;2023-05-24T00:19:13;100001.31;;;22.01;41.27
34124;BME280;13153;52.316;21.166;2023-05-24T00:21:44;100000.28;;;22.07;41.65
34124;BME280;13153;52.316;21.166;2023-05-24T00:24:10;100002.22;;;21.99;41.94
34124;BME280;13153;52.316;21.166;2023-05-24T00:26:36;100006.03;;;21.92;41.34
34124;BME280;13153;52.316;21.166;2023-05-24T00:29:02;100001.69;;;21.86;41.90
34124;BME280;13153;52.316;21.166;2023-05-24T00:31:28;99999.06;;;21.85;42.36
34124;BME280;13153;52.316;21.166;2023-05-24T00:33:54;99999.13;;;21.82;42.33
34124;BME280;13153;52.316;21.166;2023-05-24T00:36:20;100000.97;;;21.80;42.57
34124;BME280;13153;52.316;21.166;2023-05-24T00:38:46;99994.75;;;21.79;42.46
34124;BME280;13153;52.316;21.166;2023-05-24T00:41:12;99989.38;;;21.79;42.63
34124;BME280;13153;52.316;21.166;2023-05-24T00:43:38;99982.38;;;21.73;42.45
34124;BME280;13153;52.316;21.166;2023-05-24T00:48:39;99986.00;;;21.71;42.83
34124;BME280;13153;52.316;21.166;2023-05-24T00:51:05;99983.31;;;21.72;43.51
34124;BME280;13153;52.316;21.166;2023-05-24T00:53:32;99979.69;;;21.73;42.64
34124;BME280;13153;52.316;21.166;2023-05-24T00:56:00;99983.41;;;21.68;42.03
34124;BME280;13153;52.316;21.166;2023-05-24T00:58:27;99977.19;;;21.67;42.22
34124;BME280;13153;52.316;21.166;2023-05-24T01:00:59;99985.19;;;21.69;42.07
34124;BME280;13153;52.316;21.166;2023-05-24T01:03:27;99982.53;;;21.67;41.48
34124;BME280;13153;52.316;21.166;2023-05-24T01:05:57;99969.19;;;21.66;41.61
34124;BME280;13153;52.316;21.166;2023-05-24T01:12:10;99979.13;;;21.61;42.88
34124;BME280;13153;52.316;21.166;2023-05-24T01:15:21;99970.13;;;21.63;42.93
34124;BME280;13153;52.316;21.166;2023-05-24T01:18:16;99977.13;;;21.69;42.91
34124;BME280;13153;52.316;21.166;2023-05-24T01:20:42;99970.91;;;21.68;42.60
34124;BME280;13153;52.316;21.166;2023-05-24T01:23:21;99975.47;;;21.65;42.15
34124;BME280;13153;52.316;21.166;2023-05-24T01:26:24;99975.41;;;21.66;42.20
34124;BME280;13153;52.316;21.166;2023-05-24T01:28:56;99984.34;;;21.67;42.04
34124;BME280;13153;52.316;21.166;2023-05-24T01:31:22;99979.94;;;21.64;42.29
34124;BME280;13153;52.316;21.166;2023-05-24T01:33:48;99978.97;;;21.67;42.66
34124;BME280;13153;52.316;21.166;2023-05-24T01:36:14;99979.94;;;21.64;42.00
34124;BME280;13153;52.316;21.166;2023-05-24T01:38:40;99981.69;;;21.65;42.51
34124;BME280;13153;52.316;21.166;2023-05-24T01:41:22;99988.00;;;21.63;41.90
34124;BME280;13153;52.316;21.166;2023-05-24T01:44:43;99985.38;;;21.61;41.38
34124;BME280;13153;52.316;21.166;2023-05-24T01:50:18;99989.72;;;21.65;40.79
34124;BME280;13153;52.316;21.166;2023-05-24T01:52:46;99991.59;;;21.62;40.31
34124;BME280;13153;52.316;21.166;2023-05-24T01:55:17;99993.38;;;21.63;40.44
34124;BME280;13153;52.316;21.166;2023-05-24T01:57:45;99993.25;;;21.67;40.72
34124;BME280;13153;52.316;21.166;2023-05-24T02:00:18;100002.03;;;21.72;40.88
34124;BME280;13153;52.316;21.166;2023-05-24T02:02:44;99998.28;;;21.80;41.07
34124;BME280;13153;52.316;21.166;2023-05-24T02:05:10;99992.78;;;21.86;41.14
34124;BME280;13153;52.316;21.166;2023-05-24T02:07:36;100001.53;;;21.92;41.74
34124;BME280;13153;52.316;21.166;2023-05-24T02:10:04;99990.72;;;21.95;41.79
34124;BME280;13153;52.316;21.166;2023-05-24T02:12:30;100011.16;;;21.99;42.33
34124;BME280;13153;52.316;21.166;2023-05-24T02:14:56;100002.19;;;22.00;42.44
34124;BME280;13153;52.316;21.166;2023-05-24T02:17:40;100007.53;;;22.02;42.83
34124;BME280;13153;52.316;21.166;2023-05-24T02:20:08;100007.63;;;21.97;42.76
34124;BME280;13153;52.316;21.166;2023-05-24T02:22:34;100003.16;;;21.98;42.87
34124;BME280;13153;52.316;21.166;2023-05-24T02:24:59;100006.75;;;21.97;43.10
34124;BME280;13153;52.316;21.166;2023-05-24T02:27:26;100008.63;;;21.95;43.49
34124;BME280;13153;52.316;21.166;2023-05-24T02:29:51;100006.03;;;21.92;42.85
34124;BME280;13153;52.316;21.166;2023-05-24T02:32:17;100006.13;;;21.87;43.35
34124;BME280;13153;52.316;21.166;2023-05-24T02:34:43;100012.50;;;21.83;43.65
34124;BME280;13153;52.316;21.166;2023-05-24T02:37:09;100013.41;;;21.82;44.03
34124;BME280;13153;52.316;21.166;2023-05-24T02:39:39;100009.94;;;21.79;44.46
34124;BME280;13153;52.316;21.166;2023-05-24T02:42:06;100017.16;;;21.75;44.99
34124;BME280;13153;52.316;21.166;2023-05-24T02:44:33;100011.06;;;21.68;44.91
34124;BME280;13153;52.316;21.166;2023-05-24T02:46:59;100009.50;;;21.60;44.46
34124;BME280;13153;52.316;21.166;2023-05-24T02:49:25;100006.13;;;21.52;44.25
34124;BME280;13153;52.316;21.166;2023-05-24T02:51:51;100007.16;;;21.46;43.71
34124;BME280;13153;52.316;21.166;2023-05-24T02:54:17;100003.75;;;21.39;44.03
34124;BME280;13153;52.316;21.166;2023-05-24T02:56:43;100003.88;;;21.35;44.37
34124;BME280;13153;52.316;21.166;2023-05-24T02:59:09;100004.91;;;21.29;44.85
34124;BME280;13153;52.316;21.166;2023-05-24T03:01:35;99999.56;;;21.29;45.12
34124;BME280;13153;52.316;21.166;2023-05-24T03:04:01;100007.63;;;21.28;45.10
34124;BME280;13153;52.316;21.166;2023-05-24T03:06:27;100007.69;;;21.25;44.88
34124;BME280;13153;52.316;21.166;2023-05-24T03:08:53;100005.03;;;21.23;44.80
34124;BME280;13153;52.316;21.166;2023-05-24T03:11:18;100006.91;;;21.18;45.15
34124;BME280;13153;52.316;21.166;2023-05-24T03:13:49;100008.81;;;21.13;44.87
34124;BME280;13153;52.316;21.166;2023-05-24T03:16:15;100006.09;;;21.15;45.17
34124;BME280;13153;52.316;21.166;2023-05-24T03:18:41;100014.09;;;21.16;45.36
34124;BME280;13153;52.316;21.166;2023-05-24T03:21:07;100013.13;;;21.19;45.26
34124;BME280;13153;52.316;21.166;2023-05-24T03:23:33;100016.66;;;21.21;45.41
34124;BME280;13153;52.316;21.166;2023-05-24T03:25:58;100015.78;;;21.22;45.77
34124;BME280;13153;52.316;21.166;2023-05-24T03:28:24;100019.19;;;21.28;45.60
34124;BME280;13153;52.316;21.166;2023-05-24T03:30:51;100023.50;;;21.35;45.50
34124;BME280;13153;52.316;21.166;2023-05-24T03:33:17;100021.53;;;21.42;45.55
34124;BME280;13153;52.316;21.166;2023-05-24T03:35:43;100021.56;;;21.40;45.15
34124;BME280;13153;52.316;21.166;2023-05-24T03:38:09;100026.88;;;21.42;45.41
34124;BME280;13153;52.316;21.166;2023-05-24T03:40:35;100020.50;;;21.48;45.85
34124;BME280;13153;52.316;21.166;2023-05-24T03:43:01;100023.22;;;21.46;46.13
34124;BME280;13153;52.316;21.166;2023-05-24T03:45:27;100025.84;;;21.48;45.37
34124;BME280;13153;52.316;21.166;2023-05-24T03:47:52;100030.19;;;21.53;45.89
34124;BME280;13153;52.316;21.166;2023-05-24T03:50:18;100027.44;;;21.56;45.79
34124;BME280;13153;52.316;21.166;2023-05-24T03:52:44;100028.28;;;21.58;46.12
34124;BME280;13153;52.316;21.166;2023-05-24T03:55:11;100030.00;;;21.61;45.20
34124;BME280;13153;52.316;21.166;2023-05-24T03:57:39;100030.13;;;21.56;45.67
34124;BME280;13153;52.316;21.166;2023-05-24T04:00:07;100036.94;;;21.69;45.92
34124;BME280;13153;52.316;21.166;2023-05-24T04:02:34;100042.06;;;21.79;45.55
34124;BME280;13153;52.316;21.166;2023-05-24T04:05:06;100038.50;;;21.78;44.85
34124;BME280;13153;52.316;21.166;2023-05-24T04:07:36;100037.41;;;21.87;45.51
34124;BME280;13153;52.316;21.166;2023-05-24T04:10:06;100041.50;;;22.00;44.64
34124;BME280;13153;52.316;21.166;2023-05-24T04:12:32;100043.25;;;22.01;44.36
34124;BME280;13153;52.316;21.166;2023-05-24T04:14:59;100040.94;;;21.89;44.42
34124;BME280;13153;52.316;21.166;2023-05-24T04:17:26;100036.25;;;21.95;44.41
34124;BME280;13153;52.316;21.166;2023-05-24T04:19:54;100042.56;;;21.94;44.64
34124;BME280;13153;52.316;21.166;2023-05-24T04:22:20;100044.44;;;21.91;44.98
34124;BME280;13153;52.316;21.166;2023-05-24T04:24:46;100047.97;;;21.93;45.00
34124;BME280;13153;52.316;21.166;2023-05-24T04:27:12;100043.44;;;21.95;45.02
34124;BME280;13153;52.316;21.166;2023-05-24T04:29:39;100051.56;;;21.92;44.29
34124;BME280;13153;52.316;21.166;2023-05-24T04:32:06;100048.88;;;21.92;44.42
34124;BME280;13153;52.316;21.166;2023-05-24T04:34:34;100058.66;;;21.94;44.53
34124;BME280;13153;52.316;21.166;2023-05-24T04:37:01;100063.84;;;21.99;43.97
34124;BME280;13153;52.316;21.166;2023-05-24T04:39:30;100066.50;;;22.00;43.45
34124;BME280;13153;52.316;21.166;2023-05-24T04:41:55;100061.22;;;21.97;43.52
34124;BME280;13153;52.316;21.166;2023-05-24T04:44:23;100065.84;;;21.92;43.34
34124;BME280;13153;52.316;21.166;2023-05-24T04:46:49;100071.97;;;21.96;43.25
34124;BME280;13153;52.316;21.166;2023-05-24T04:49:15;100077.22;;;22.00;43.56
34124;BME280;13153;52.316;21.166;2023-05-24T04:51:41;100075.41;;;22.01;42.86
34124;BME280;13153;52.316;21.166;2023-05-24T04:54:07;100075.38;;;22.04;43.74
34124;BME280;13153;52.316;21.166;2023-05-24T04:56:37;100075.28;;;22.07;43.09
34124;BME280;13153;52.316;21.166;2023-05-24T04:59:04;100079.66;;;22.11;43.03
34124;BME280;13153;52.316;21.166;2023-05-24T05:01:31;100089.34;;;22.17;43.39
34124;BME280;13153;52.316;21.166;2023-05-24T05:03:58;100084.81;;;22.19;43.05
34124;BME280;13153;52.316;21.166;2023-05-24T05:06:23;100086.63;;;22.18;42.65
34124;BME280;13153;52.316;21.166;2023-05-24T05:08:50;100083.78;;;22.24;42.69
34124;BME280;13153;52.316;21.166;2023-05-24T05:11:19;100085.38;;;22.31;42.68
34124;BME280;13153;52.316;21.166;2023-05-24T05:13:45;100087.75;;;22.44;42.31
34124;BME280;13153;52.316;21.166;2023-05-24T05:16:11;100088.44;;;22.52;41.86
34124;BME280;13153;52.316;21.166;2023-05-24T05:18:37;100092.50;;;22.65;41.76
34124;BME280;13153;52.316;21.166;2023-05-24T05:21:03;100092.06;;;22.82;41.85
34124;BME280;13153;52.316;21.166;2023-05-24T05:23:30;100095.22;;;22.97;41.90
34124;BME280;13153;52.316;21.166;2023-05-24T05:25:56;100096.34;;;23.18;41.37
34124;BME280;13153;52.316;21.166;2023-05-24T05:28:22;100097.56;;;23.37;41.00
34124;BME280;13153;52.316;21.166;2023-05-24T05:30:47;100102.38;;;23.57;41.64
34124;BME280;13153;52.316;21.166;2023-05-24T05:33:13;100099.22;;;23.71;41.70
34124;BME280;13153;52.316;21.166;2023-05-24T05:35:39;100104.41;;;23.77;42.01
34124;BME280;13153;52.316;21.166;2023-05-24T05:38:06;100099.94;;;23.76;40.48
34124;BME280;13153;52.316;21.166;2023-05-24T05:40:32;100100.16;;;23.70;40.84
34124;BME280;13153;52.316;21.166;2023-05-24T05:42:58;100100.88;;;23.75;41.72
34124;BME280;13153;52.316;21.166;2023-05-24T05:45:23;100102.44;;;23.82;41.25
34124;BME280;13153;52.316;21.166;2023-05-24T05:47:49;100104.59;;;23.99;41.02
34124;BME280;13153;52.316;21.166;2023-05-24T05:50:15;100100.78;;;24.32;39.85
34124;BME280;13153;52.316;21.166;2023-05-24T05:52:41;100109.44;;;24.67;38.87
34124;BME280;13153;52.316;21.166;2023-05-24T05:55:08;100117.13;;;25.94;36.13
34124;BME280;13153;52.316;21.166;2023-05-24T05:57:34;100120.88;;;26.75;34.97
34124;BME280;13153;52.316;21.166;2023-05-24T06:00:00;100118.28;;;27.51;34.15
34124;BME280;13153;52.316;21.166;2023-05-24T06:02:26;100114.06;;;28.37;32.34
34124;BME280;13153;52.316;21.166;2023-05-24T06:04:52;100125.44;;;29.12;31.56
34124;BME280;13153;52.316;21.166;2023-05-24T06:07:17;100128.72;;;29.83;29.77
34124;BME280;13153;52.316;21.166;2023-05-24T06:09:43;100128.72;;;29.83;30.10
34124;BME280;13153;52.316;21.166;2023-05-24T06:12:09;100137.81;;;29.98;29.65
34124;BME280;13153;52.316;21.166;2023-05-24T06:14:35;100138.16;;;29.92;30.46
34124;BME280;13153;52.316;21.166;2023-05-24T06:17:06;100137.59;;;29.54;31.16
34124;BME280;13153;52.316;21.166;2023-05-24T06:19:32;100140.44;;;29.84;30.52
34124;BME280;13153;52.316;21.166;2023-05-24T06:21:58;100142.13;;;31.36;28.45
34124;BME280;13153;52.316;21.166;2023-05-24T06:24:24;100147.09;;;31.58;27.77
34124;BME280;13153;52.316;21.166;2023-05-24T06:26:51;100152.63;;;30.84;28.05
34124;BME280;13153;52.316;21.166;2023-05-24T06:29:18;100153.03;;;30.32;29.66
34124;BME280;13153;52.316;21.166;2023-05-24T06:31:45;100157.06;;;31.86;27.90
34124;BME280;13153;52.316;21.166;2023-05-24T06:34:12;100158.56;;;33.87;25.99
34124;BME280;13153;52.316;21.166;2023-05-24T06:36:41;100156.97;;;35.48;23.39
34124;BME280;13153;52.316;21.166;2023-05-24T06:39:11;100161.88;;;36.76;22.06
34124;BME280;13153;52.316;21.166;2023-05-24T06:41:38;100168.31;;;37.88;20.74
34124;BME280;13153;52.316;21.166;2023-05-24T06:44:04;100168.59;;;38.54;20.45
34124;BME280;13153;52.316;21.166;2023-05-24T06:46:30;100173.38;;;39.20;18.46
34124;BME280;13153;52.316;21.166;2023-05-24T06:48:56;100186.50;;;39.36;17.10
34124;BME280;13153;52.316;21.166;2023-05-24T06:51:23;100182.78;;;38.98;16.85
34124;BME280;13153;52.316;21.166;2023-05-24T06:53:49;100181.72;;;38.22;17.40
34124;BME280;13153;52.316;21.166;2023-05-24T06:56:15;100186.44;;;38.70;17.43
34124;BME280;13153;52.316;21.166;2023-05-24T06:58:41;100187.00;;;38.83;17.38
34124;BME280;13153;52.316;21.166;2023-05-24T07:01:07;100176.91;;;36.81;17.70
34124;BME280;13153;52.316;21.166;2023-05-24T07:03:34;100185.69;;;36.75;18.52
34124;BME280;13153;52.316;21.166;2023-05-24T07:05:59;100175.44;;;36.98;19.35
34124;BME280;13153;52.316;21.166;2023-05-24T07:08:26;100181.69;;;37.42;17.89
34124;BME280;13153;52.316;21.166;2023-05-24T07:10:55;100186.22;;;35.70;19.28
34124;BME280;13153;52.316;21.166;2023-05-24T07:13:21;100178.63;;;33.98;20.82
34124;BME280;13153;52.316;21.166;2023-05-24T07:15:48;100188.38;;;33.26;22.20
34124;BME280;13153;52.316;21.166;2023-05-24T07:18:14;100186.84;;;33.22;22.28
34124;BME280;13153;52.316;21.166;2023-05-24T07:20:40;100197.09;;;33.06;22.17
34124;BME280;13153;52.316;21.166;2023-05-24T07:23:06;100201.91;;;34.75;20.58
34124;BME280;13153;52.316;21.166;2023-05-24T07:25:32;100202.78;;;36.56;19.38
34124;BME280;13153;52.316;21.166;2023-05-24T07:28:00;100212.09;;;37.80;18.29
34124;BME280;13153;52.316;21.166;2023-05-24T07:30:26;100214.25;;;38.17;17.46
34124;BME280;13153;52.316;21.166;2023-05-24T07:32:52;100218.50;;;38.40;17.67
34124;BME280;13153;52.316;21.166;2023-05-24T07:35:18;100222.50;;;38.17;17.17
34124;BME280;13153;52.316;21.166;2023-05-24T07:37:44;100220.31;;;38.11;18.48
34124;BME280;13153;52.316;21.166;2023-05-24T07:40:10;100223.34;;;37.77;18.31
34124;BME280;13153;52.316;21.166;2023-05-24T07:42:37;100228.31;;;37.62;18.42
34124;BME280;13153;52.316;21.166;2023-05-24T07:45:07;100225.53;;;38.63;18.17
34124;BME280;13153;52.316;21.166;2023-05-24T07:47:35;100224.09;;;39.17;17.77
34124;BME280;13153;52.316;21.166;2023-05-24T07:50:02;100242.00;;;39.50;16.48
34124;BME280;13153;52.316;21.166;2023-05-24T07:52:28;100232.88;;;38.53;17.60
34124;BME280;13153;52.316;21.166;2023-05-24T07:54:54;100235.03;;;36.32;19.27
34124;BME280;13153;52.316;21.166;2023-05-24T07:57:20;100230.63;;;35.51;20.46
34124;BME280;13153;52.316;21.166;2023-05-24T07:59:47;100236.25;;;35.50;21.08
34124;BME280;13153;52.316;21.166;2023-05-24T08:02:13;100233.50;;;34.80;21.95
34124;BME280;13153;52.316;21.166;2023-05-24T08:04:40;100229.47;;;34.12;22.52
34124;BME280;13153;52.316;21.166;2023-05-24T08:07:05;100229.78;;;33.45;23.29
34124;BME280;13153;52.316;21.166;2023-05-24T08:09:32;100232.31;;;32.69;24.35
34124;BME280;13153;52.316;21.166;2023-05-24T08:12:01;100229.09;;;31.80;24.55
34124;BME280;13153;52.316;21.166;2023-05-24T08:14:27;100232.53;;;31.26;26.41
34124;BME280;13153;52.316;21.166;2023-05-24T08:16:53;100230.38;;;30.86;26.82
34124;BME280;13153;52.316;21.166;2023-05-24T08:19:18;100225.00;;;30.55;28.22
34124;BME280;13153;52.316;21.166;2023-05-24T08:21:44;100230.97;;;30.14;27.60
34124;BME280;13153;52.316;21.166;2023-05-24T08:24:10;100229.19;;;29.98;27.08
34124;BME280;13153;52.316;21.166;2023-05-24T08:26:36;100227.78;;;29.90;28.27
34124;BME280;13153;52.316;21.166;2023-05-24T08:29:03;100223.41;;;29.88;28.80
34124;BME280;13153;52.316;21.166;2023-05-24T08:31:30;100235.69;;;29.95;27.96
34124;BME280;13153;52.316;21.166;2023-05-24T08:33:58;100225.00;;;29.92;27.62
34124;BME280;13153;52.316;21.166;2023-05-24T08:36:24;100228.59;;;30.24;28.06
34124;BME280;13153;52.316;21.166;2023-05-24T08:38:50;100240.88;;;30.47;27.89
34124;BME280;13153;52.316;21.166;2023-05-24T08:41:16;100220.63;;;30.52;27.35
34124;BME280;13153;52.316;21.166;2023-05-24T08:43:42;100234.25;;;29.88;25.75
34124;BME280;13153;52.316;21.166;2023-05-24T08:46:13;100240.94;;;29.65;26.09
34124;BME280;13153;52.316;21.166;2023-05-24T08:48:46;100242.06;;;29.61;26.24
34124;BME280;13153;52.316;21.166;2023-05-24T08:51:16;100240.72;;;29.52;25.86
34124;BME280;13153;52.316;21.166;2023-05-24T08:53:44;100235.91;;;29.42;27.17
34124;BME280;13153;52.316;21.166;2023-05-24T08:56:17;100249.06;;;28.98;27.45
34124;BME280;13153;52.316;21.166;2023-05-24T08:58:44;100245.72;;;29.27;26.89
34124;BME280;13153;52.316;21.166;2023-05-24T09:01:13;100239.16;;;29.31;26.52
34124;BME280;13153;52.316;21.166;2023-05-24T09:03:42;100236.22;;;29.18;27.17
34124;BME280;13153;52.316;21.166;2023-05-24T09:06:15;100246.66;;;29.26;26.43
34124;BME280;13153;52.316;21.166;2023-05-24T09:08:42;100247.28;;;29.31;26.88
34124;BME280;13153;52.316;21.166;2023-05-24T09:11:10;100251.59;;;29.18;27.03
34124;BME280;13153;52.316;21.166;2023-05-24T09:13:36;100254.16;;;29.21;26.44
34124;BME280;13153;52.316;21.166;2023-05-24T09:16:05;100238.13;;;29.34;27.52
34124;BME280;13153;52.316;21.166;2023-05-24T09:18:31;100256.97;;;29.70;27.19
34124;BME280;13153;52.316;21.166;2023-05-24T09:20:57;100245.88;;;29.74;26.65
34124;BME280;13153;52.316;21.166;2023-05-24T09:23:25;100261.31;;;29.39;26.20
34124;BME280;13153;52.316;21.166;2023-05-24T09:25:51;100264.22;;;29.69;26.50
34124;BME280;13153;52.316;21.166;2023-05-24T09:28:19;100253.94;;;29.76;26.27
34124;BME280;13153;52.316;21.166;2023-05-24T09:31:00;100252.06;;;30.09;26.45
34124;BME280;13153;52.316;21.166;2023-05-24T09:33:31;100263.78;;;30.10;26.31
34124;BME280;13153;52.316;21.166;2023-05-24T09:35:59;100265.81;;;30.06;26.09
34124;BME280;13153;52.316;21.166;2023-05-24T09:38:27;100265.47;;;30.12;26.13
34124;BME280;13153;52.316;21.166;2023-05-24T09:41:06;100254.59;;;30.12;26.79
34124;BME280;13153;52.316;21.166;2023-05-24T09:43:34;100269.06;;;30.13;27.02
34124;BME280;13153;52.316;21.166;2023-05-24T09:46:17;100262.94;;;30.25;27.14
34124;BME280;13153;52.316;21.166;2023-05-24T09:49:00;100262.56;;;30.15;26.49
34124;BME280;13153;52.316;21.166;2023-05-24T09:51:28;100256.00;;;30.19;25.94
34124;BME280;13153;52.316;21.166;2023-05-24T09:54:01;100269.16;;;30.27;27.10
34124;BME280;13153;52.316;21.166;2023-05-24T09:56:28;100267.84;;;30.18;26.37
34124;BME280;13153;52.316;21.166;2023-05-24T09:58:54;100274.81;;;30.07;26.74
34124;BME280;13153;52.316;21.166;2023-05-24T10:01:23;100263.72;;;30.11;26.04
34124;BME280;13153;52.316;21.166;2023-05-24T10:03:57;100262.94;;;30.25;26.82
34124;BME280;13153;52.316;21.166;2023-05-24T10:06:24;100264.69;;;30.10;26.05
34124;BME280;13153;52.316;21.166;2023-05-24T10:08:51;100262.03;;;30.09;25.48
34124;BME280;13153;52.316;21.166;2023-05-24T10:11:18;100276.00;;;30.03;25.54
34124;BME280;13153;52.316;21.166;2023-05-24T10:13:43;100268.06;;;29.98;25.11
34124;BME280;13153;52.316;21.166;2023-05-24T10:16:09;100274.84;;;29.74;25.71
34124;BME280;13153;52.316;21.166;2023-05-24T10:18:36;100271.22;;;29.06;26.50
34124;BME280;13153;52.316;21.166;2023-05-24T10:21:05;100267.06;;;28.99;26.11
34124;BME280;13153;52.316;21.166;2023-05-24T10:23:37;100261.19;;;28.72;26.35
34124;BME280;13153;52.316;21.166;2023-05-24T10:26:06;100268.25;;;28.93;27.08
34124;BME280;13153;52.316;21.166;2023-05-24T10:28:56;100271.59;;;28.81;26.55
34124;BME280;13153;52.316;21.166;2023-05-24T10:31:31;100268.44;;;28.71;27.23
34124;BME280;13153;52.316;21.166;2023-05-24T10:34:01;100276.16;;;28.62;26.78
34124;BME280;13153;52.316;21.166;2023-05-24T10:36:28;100277.34;;;28.92;26.06
34124;BME280;13153;52.316;21.166;2023-05-24T10:38:55;100274.69;;;28.54;26.30
34124;BME280;13153;52.316;21.166;2023-05-24T10:41:25;100273.75;;;28.91;25.97
34124;BME280;13153;52.316;21.166;2023-05-24T10:43:56;100271.28;;;29.04;25.81
34124;BME280;13153;52.316;21.166;2023-05-24T10:46:22;100270.41;;;29.21;26.12
34124;BME280;13153;52.316;21.166;2023-05-24T10:48:59;100269.78;;;29.16;26.63
34124;BME280;13153;52.316;21.166;2023-05-24T10:51:38;100265.56;;;29.10;25.35
34124;BME280;13153;52.316;21.166;2023-05-24T10:54:17;100267.16;;;29.32;25.49
34124;BME280;13153;52.316;21.166;2023-05-24T10:56:49;100264.53;;;29.30;25.76
34124;BME280;13153;52.316;21.166;2023-05-24T10:59:35;100273.06;;;29.22;26.64
34124;BME280;13153;52.316;21.166;2023-05-24T11:02:08;100271.22;;;29.40;26.44
34124;BME280;13153;52.316;21.166;2023-05-24T11:04:40;100279.50;;;29.54;25.80
34124;BME280;13153;52.316;21.166;2023-05-24T11:07:12;100275.31;;;29.65;25.82
34124;BME280;13153;52.316;21.166;2023-05-24T11:09:39;100272.91;;;29.76;26.32
34124;BME280;13153;52.316;21.166;2023-05-24T11:12:18;100278.00;;;29.82;26.17
34124;BME280;13153;52.316;21.166;2023-05-24T11:14:52;100275.91;;;29.87;26.26
34124;BME280;13153;52.316;21.166;2023-05-24T11:17:22;100285.81;;;29.88;25.93
34124;BME280;13153;52.316;21.166;2023-05-24T11:19:54;100280.19;;;29.42;26.30
34124;BME280;13153;52.316;21.166;2023-05-24T11:22:24;100281.31;;;29.71;26.38
34124;BME280;13153;52.316;21.166;2023-05-24T11:24:51;100281.09;;;29.58;26.09
34124;BME280;13153;52.316;21.166;2023-05-24T11:27:17;100282.97;;;29.74;26.11
34124;BME280;13153;52.316;21.166;2023-05-24T11:29:45;100285.22;;;29.66;26.24
34124;BME280;13153;52.316;21.166;2023-05-24T11:32:17;100285.59;;;29.42;26.36
34124;BME280;13153;52.316;21.166;2023-05-24T11:34:45;100277.25;;;29.63;26.63
34124;BME280;13153;52.316;21.166;2023-05-24T11:37:12;100282.28;;;29.36;26.95
34124;BME280;13153;52.316;21.166;2023-05-24T11:39:39;100283.88;;;29.57;26.22
34124;BME280;13153;52.316;21.166;2023-05-24T11:42:07;100277.91;;;29.50;27.02
34124;BME280;13153;52.316;21.166;2023-05-24T11:44:34;100285.59;;;29.42;26.04
34124;BME280;13153;52.316;21.166;2023-05-24T11:47:05;100282.38;;;29.51;26.42
34124;BME280;13153;52.316;21.166;2023-05-24T11:49:31;100280.59;;;29.68;25.40
34124;BME280;13153;52.316;21.166;2023-05-24T11:51:58;100283.84;;;29.41;26.21
34124;BME280;13153;52.316;21.166;2023-05-24T11:54:27;100273.41;;;29.67;26.39
34124;BME280;13153;52.316;21.166;2023-05-24T11:56:54;100283.97;;;29.38;26.19
34124;BME280;13153;52.316;21.166;2023-05-24T11:59:24;100281.59;;;29.82;26.65
34124;BME280;13153;52.316;21.166;2023-05-24T12:02:03;100282.84;;;29.25;27.33
34124;BME280;13153;52.316;21.166;2023-05-24T12:04:31;100282.84;;;29.60;26.38
34124;BME280;13153;52.316;21.166;2023-05-24T12:06:58;100270.19;;;29.76;26.18
34124;BME280;13153;52.316;21.166;2023-05-24T12:09:24;100275.97;;;29.70;25.91
34124;BME280;13153;52.316;21.166;2023-05-24T12:11:51;100288.66;;;29.69;26.01
34124;BME280;13153;52.316;21.166;2023-05-24T12:14:23;100285.97;;;29.85;25.63
34124;BME280;13153;52.316;21.166;2023-05-24T12:16:54;100274.16;;;30.03;25.39
34124;BME280;13153;52.316;21.166;2023-05-24T12:19:22;100270.59;;;29.85;25.43
34124;BME280;13153;52.316;21.166;2023-05-24T12:21:55;100276.16;;;30.00;26.49
34124;BME280;13153;52.316;21.166;2023-05-24T12:24:23;100273.81;;;29.59;25.27
34124;BME280;13153;52.316;21.166;2023-05-24T12:26:49;100294.06;;;29.69;25.74
34124;BME280;13153;52.316;21.166;2023-05-24T12:29:16;100273.94;;;30.06;26.34
34124;BME280;13153;52.316;21.166;2023-05-24T12:31:44;100294.72;;;30.23;25.72
34124;BME280;13153;52.316;21.166;2023-05-24T12:34:16;100281.75;;;30.12;25.56
34124;BME280;13153;52.316;21.166;2023-05-24T12:36:42;100277.41;;;29.93;26.27
34124;BME280;13153;52.316;21.166;2023-05-24T12:39:27;100280.69;;;29.99;27.30
34124;BME280;13153;52.316;21.166;2023-05-24T12:41:57;100276.50;;;30.09;26.50
34124;BME280;13153;52.316;21.166;2023-05-24T12:44:28;100293.22;;;30.17;27.20
34124;BME280;13153;52.316;21.166;2023-05-24T12:46:56;100282.59;;;29.97;26.42
34124;BME280;13153;52.316;21.166;2023-05-24T12:49:22;100279.91;;;30.13;25.73
34124;BME280;13153;52.316;21.166;2023-05-24T12:51:50;100288.06;;;30.29;25.93
34124;BME280;13153;52.316;21.166;2023-05-24T12:54:21;100278.00;;;29.82;27.07
34124;BME280;13153;52.316;21.166;2023-05-24T12:56:47;100272.66;;;30.29;26.86